Time;durP1;ratioP1;P1;durP2;ratioP2;P2;SDS_P1;SDS_P2;PMS_P1;PMS_P2;Temp;Humidity;BMP_temperature;BMP_pressure;BME280_temperature;BME280_humidity;BME280_pressure;Samples;Min_cycle;Max_cycle;Signal;HPM_P1;HPM_P2
2022/09/06 00:02:19;;;;;;;3.00;2.40;;;19.60;99.90;;;;;;4991371;28;20228;-54
2022/09/06 00:04:45;;;;;;;4.10;2.67;;;19.30;99.90;;;;;;4986295;28;20202;-53
2022/09/06 00:07:12;;;;;;;3.33;2.23;;;19.30;99.90;;;;;;4994954;28;20662;-53
2022/09/06 00:09:39;;;;;;;2.57;2.33;;;19.40;99.90;;;;;;4984100;28;20665;-53
2022/09/06 00:12:06;;;;;;;4.50;2.67;;;19.60;99.90;;;;;;4989885;28;20320;-53
2022/09/06 00:14:33;;;;;;;6.97;4.00;;;19.80;99.90;;;;;;4989422;28;20294;-52
2022/09/06 00:17:00;;;;;;;3.47;2.73;;;19.80;99.90;;;;;;4983439;28;20219;-53
2022/09/06 00:19:27;;;;;;;3.33;2.50;;;19.80;99.90;;;;;;4987477;28;20283;-53
2022/09/06 00:21:53;;;;;;;2.73;2.53;;;19.90;99.90;;;;;;4986604;28;20772;-53
2022/09/06 00:24:20;;;;;;;4.43;3.00;;;20.00;99.90;;;;;;4983240;28;20576;-53
2022/09/06 00:26:47;;;;;;;5.03;3.20;;;20.00;99.90;;;;;;4985003;28;20636;-53
2022/09/06 00:29:14;;;;;;;3.70;2.87;;;20.20;99.90;;;;;;4984957;28;20214;-57
2022/09/06 00:31:41;;;;;;;4.53;2.80;;;19.90;99.90;;;;;;4988499;28;20227;-53
2022/09/06 00:34:08;;;;;;;4.20;2.63;;;19.60;99.90;;;;;;4984364;28;20211;-53
2022/09/06 00:36:34;;;;;;;3.47;2.80;;;19.30;99.90;;;;;;4983349;28;20248;-53
2022/09/06 00:39:02;;;;;;;3.27;2.80;;;19.10;99.90;;;;;;4980991;28;20640;-54
2022/09/06 00:41:29;;;;;;;4.07;3.10;;;19.20;99.90;;;;;;4970041;28;20229;-53
2022/09/06 00:43:55;;;;;;;6.37;2.87;;;19.10;99.90;;;;;;4985669;28;20218;-53
2022/09/06 00:46:26;;;;;;;5.03;3.40;;;19.40;99.90;;;;;;4989827;28;20213;-52
2022/09/06 00:49:05;;;;;;;5.93;3.20;;;19.50;99.90;;;;;;4988835;28;20671;-53
2022/09/06 00:51:34;;;;;;;4.73;2.80;;;19.30;99.90;;;;;;4990565;28;20239;-54
2022/09/06 00:54:06;;;;;;;4.40;3.40;;;19.50;99.90;;;;;;4984120;28;20234;-53
2022/09/06 00:56:37;;;;;;;3.40;3.03;;;19.60;99.90;;;;;;4983491;28;20225;-54
2022/09/06 00:59:04;;;;;;;7.03;3.87;;;19.50;99.90;;;;;;4983824;28;20193;-52
2022/09/06 01:01:31;;;;;;;6.67;3.40;;;19.50;99.90;;;;;;4990131;28;20202;-53
2022/09/06 01:04:00;;;;;;;4.40;3.70;;;19.40;99.90;;;;;;4987387;28;20263;-53
2022/09/06 01:06:43;;;;;;;6.97;3.60;;;19.40;99.90;;;;;;4984167;28;20533;-54
2022/09/06 01:09:15;;;;;;;5.47;3.60;;;19.40;99.90;;;;;;4984414;28;20389;-54
2022/09/06 01:12:06;;;;;;;6.43;3.60;;;19.50;99.90;;;;;;4982241;28;20213;-53
2022/09/06 01:14:44;;;;;;;5.27;3.80;;;19.60;99.90;;;;;;4981078;28;20218;-53
2022/09/06 01:18:19;;;;;;;4.40;3.83;;;19.60;99.90;;;;;;4990772;28;20621;-53
2022/09/06 01:21:01;;;;;;;4.43;4.00;;;19.50;99.90;;;;;;4878254;29;20205;-54
2022/09/06 01:23:46;;;;;;;7.37;4.30;;;19.50;99.90;;;;;;4969549;28;20229;-54
2022/09/06 01:26:27;;;;;;;4.53;3.87;;;19.50;99.90;;;;;;4977897;28;20202;-54
2022/09/06 01:28:55;;;;;;;5.60;4.00;;;19.50;99.90;;;;;;4979842;28;20204;-53
2022/09/06 01:31:36;;;;;;;7.57;4.67;;;19.40;99.90;;;;;;4974285;28;20207;-53
2022/09/06 01:34:06;;;;;;;5.43;4.77;;;19.40;99.90;;;;;;4977410;28;20351;-53
2022/09/06 01:36:39;;;;;;;5.67;4.70;;;19.30;99.90;;;;;;4984575;28;20293;-53
2022/09/06 01:39:32;;;;;;;6.83;4.93;;;19.40;99.90;;;;;;4984383;28;20214;-53
2022/09/06 01:42:22;;;;;;;7.63;4.90;;;19.40;99.90;;;;;;4988091;28;20754;-53
2022/09/06 01:44:56;;;;;;;6.77;5.00;;;19.30;99.90;;;;;;4987846;28;20297;-53
2022/09/06 01:47:41;;;;;;;5.03;4.53;;;19.00;99.90;;;;;;4987212;28;20211;-53
2022/09/06 01:50:07;;;;;;;6.47;5.40;;;19.10;99.90;;;;;;4988617;28;20292;-54
2022/09/06 01:53:10;;;;;;;6.17;4.77;;;19.20;99.90;;;;;;4986654;28;20249;-53
2022/09/06 01:56:07;;;;;;;8.43;5.43;;;19.30;99.90;;;;;;4956184;28;20224;-53
2022/09/06 01:58:49;;;;;;;8.70;4.90;;;19.40;99.90;;;;;;4980105;28;20271;-53
2022/09/06 02:01:30;;;;;;;6.23;5.20;;;19.50;99.90;;;;;;4951882;28;20219;-52
2022/09/06 02:04:28;;;;;;;5.37;4.87;;;19.50;99.90;;;;;;4955295;28;20261;-52
2022/09/06 02:07:02;;;;;;;5.73;5.20;;;19.50;99.90;;;;;;4954928;28;20210;-53
2022/09/06 02:09:35;;;;;;;7.97;5.63;;;19.40;99.90;;;;;;4951206;28;20217;-53
2022/09/06 02:12:04;;;;;;;6.73;5.47;;;19.40;99.90;;;;;;4955390;28;20272;-53
2022/09/06 02:15:01;;;;;;;5.57;5.07;;;19.30;99.90;;;;;;4966461;28;20276;-54
2022/09/06 02:17:36;;;;;;;7.37;5.53;;;19.20;99.90;;;;;;4967293;28;20229;-54
2022/09/06 02:20:08;;;;;;;5.47;4.97;;;19.20;99.90;;;;;;4966796;28;20382;-53
2022/09/06 02:22:43;;;;;;;5.80;5.20;;;19.30;99.90;;;;;;4982724;28;20213;-54
2022/09/06 02:25:21;;;;;;;6.20;5.33;;;19.30;99.90;;;;;;4999103;28;20292;-53
2022/09/06 02:27:48;;;;;;;6.37;5.77;;;19.40;99.90;;;;;;4973980;28;20213;-53
2022/09/06 02:30:15;;;;;;;8.30;6.33;;;19.10;99.90;;;;;;4977484;28;20622;-54
2022/09/06 02:32:54;;;;;;;6.30;5.70;;;18.90;99.90;;;;;;4982093;28;20609;-53
2022/09/06 02:35:21;;;;;;;8.17;6.40;;;19.10;99.90;;;;;;4971482;28;20205;-53
2022/09/06 02:37:48;;;;;;;7.63;6.10;;;19.20;99.90;;;;;;4988376;28;20217;-54
2022/09/06 02:40:15;;;;;;;7.13;6.43;;;19.20;99.90;;;;;;4962854;28;20605;-53
2022/09/06 02:42:42;;;;;;;8.07;6.83;;;19.00;99.90;;;;;;4969864;28;20205;-54
2022/09/06 02:45:09;;;;;;;13.43;7.30;;;18.70;99.90;;;;;;4955255;28;20209;-53
2022/09/06 02:47:36;;;;;;;7.43;6.70;;;18.80;99.90;;;;;;4956682;28;20649;-53
2022/09/06 02:50:03;;;;;;;7.47;6.77;;;18.90;99.90;;;;;;4960034;28;20340;-53
2022/09/06 02:52:30;;;;;;;7.43;5.93;;;19.00;99.90;;;;;;4954095;28;20740;-53
2022/09/06 02:54:57;;;;;;;8.33;7.10;;;19.20;99.90;;;;;;4958097;28;20333;-53
2022/09/06 02:57:24;;;;;;;9.20;6.97;;;19.20;99.90;;;;;;4957997;28;20727;-53
2022/09/06 02:59:50;;;;;;;8.70;6.87;;;19.20;99.90;;;;;;4953488;28;20618;-54
2022/09/06 03:02:17;;;;;;;7.97;7.17;;;19.20;99.90;;;;;;4971711;28;20202;-53
2022/09/06 03:04:44;;;;;;;8.43;6.53;;;19.20;99.90;;;;;;4957680;28;20328;-52
2022/09/06 03:07:11;;;;;;;8.10;6.67;;;19.10;99.90;;;;;;4970067;28;20292;-54
2022/09/06 03:09:38;;;;;;;9.20;6.87;;;19.10;99.90;;;;;;4980922;28;20292;-52
2022/09/06 03:12:05;;;;;;;8.03;7.17;;;19.00;99.90;;;;;;4987821;28;20205;-54
2022/09/06 03:14:31;;;;;;;8.03;7.23;;;19.00;99.90;;;;;;4977677;28;20669;-54
2022/09/06 03:16:58;;;;;;;9.47;8.30;;;19.10;99.90;;;;;;4962875;28;20202;-54
2022/09/06 03:19:25;;;;;;;7.93;6.60;;;19.10;99.90;;;;;;4986024;28;20277;-54
2022/09/06 03:21:52;;;;;;;7.83;7.03;;;19.00;99.90;;;;;;4989172;28;20236;-54
2022/09/06 03:24:19;;;;;;;7.73;6.27;;;18.90;99.90;;;;;;4986403;28;20289;-54
2022/09/06 03:26:45;;;;;;;9.83;7.03;;;19.00;99.90;;;;;;4982057;28;20202;-54
2022/09/06 03:29:12;;;;;;;7.80;6.70;;;19.00;99.90;;;;;;4992186;28;20261;-54
2022/09/06 03:31:39;;;;;;;7.53;6.83;;;19.00;99.90;;;;;;4989384;28;20270;-54
2022/09/06 03:34:06;;;;;;;8.47;7.40;;;19.10;99.90;;;;;;4975152;28;20297;-53
2022/09/06 03:36:37;;;;;;;7.73;6.97;;;19.10;99.90;;;;;;4980394;28;20206;-54
2022/09/06 03:39:03;;;;;;;8.13;7.33;;;19.00;99.90;;;;;;4978052;28;20318;-52
2022/09/06 03:41:30;;;;;;;8.37;7.53;;;18.90;99.90;;;;;;4986915;28;20208;-54
2022/09/06 03:43:57;;;;;;;9.60;8.20;;;18.90;99.90;;;;;;4990949;28;20234;-54
2022/09/06 03:46:24;;;;;;;8.80;7.93;;;18.70;99.90;;;;;;4988949;28;20252;-54
2022/09/06 03:48:51;;;;;;;8.53;7.67;;;18.70;99.90;;;;;;4981073;28;20528;-53
2022/09/06 03:51:17;;;;;;;8.73;7.87;;;18.80;99.90;;;;;;4982512;28;20248;-54
2022/09/06 03:53:44;;;;;;;7.90;7.10;;;18.90;99.90;;;;;;4988938;28;21169;-54
2022/09/06 03:56:11;;;;;;;8.30;7.50;;;18.90;99.90;;;;;;4985076;28;20212;-54
2022/09/06 03:58:38;;;;;;;9.50;7.60;;;18.90;99.90;;;;;;4988267;28;20221;-54
2022/09/06 04:01:10;;;;;;;8.03;7.27;;;19.00;99.90;;;;;;4977772;28;20291;-53
2022/09/06 04:03:38;;;;;;;9.00;7.40;;;18.80;99.90;;;;;;4988486;28;21800;-54
2022/09/06 04:06:05;;;;;;;9.03;7.27;;;18.80;99.90;;;;;;4992110;28;20193;-53
2022/09/06 04:08:33;;;;;;;10.70;7.03;;;18.90;99.90;;;;;;4990068;28;20279;-54
2022/09/06 04:11:00;;;;;;;7.60;6.80;;;18.80;99.90;;;;;;4983495;28;20214;-54
2022/09/06 04:13:28;;;;;;;7.53;6.80;;;18.90;99.90;;;;;;4986136;28;20235;-54
2022/09/06 04:15:55;;;;;;;7.53;6.80;;;18.80;99.90;;;;;;4985395;28;20891;-53
2022/09/06 04:18:22;;;;;;;8.57;7.13;;;18.80;99.90;;;;;;4988650;28;20312;-52
2022/09/06 04:20:51;;;;;;;8.10;7.30;;;18.70;99.90;;;;;;4985782;28;20675;-53
2022/09/06 04:23:19;;;;;;;7.60;6.90;;;18.60;99.90;;;;;;4989169;28;20197;-54
2022/09/06 04:25:47;;;;;;;13.43;9.23;;;18.60;99.90;;;;;;4986445;28;20202;-54
2022/09/06 04:28:17;;;;;;;8.07;7.27;;;18.60;99.90;;;;;;4990509;28;20597;-52
2022/09/06 04:30:44;;;;;;;9.60;7.23;;;18.40;99.90;;;;;;4990731;28;20214;-53
2022/09/06 04:33:11;;;;;;;8.27;7.47;;;18.30;99.90;;;;;;4987381;28;20714;-53
2022/09/06 04:35:38;;;;;;;7.97;7.17;;;18.20;99.90;;;;;;4987687;28;20649;-52
2022/09/06 04:38:05;;;;;;;8.40;7.60;;;18.20;99.90;;;;;;4989236;28;20704;-53
2022/09/06 04:40:32;;;;;;;7.83;7.03;;;18.20;99.90;;;;;;4993783;28;20332;-53
2022/09/06 04:42:58;;;;;;;9.03;8.13;;;18.00;99.90;;;;;;4993252;28;20299;-53
2022/09/06 04:45:25;;;;;;;8.63;7.77;;;18.10;99.90;;;;;;4989871;28;20272;-53
2022/09/06 04:47:52;;;;;;;7.53;6.83;;;18.30;99.90;;;;;;4987828;28;20292;-53
2022/09/06 04:50:19;;;;;;;7.30;6.33;;;18.40;99.90;;;;;;4986176;28;20209;-53
2022/09/06 04:52:46;;;;;;;7.93;6.13;;;18.40;99.90;;;;;;4984580;28;20248;-53
2022/09/06 04:55:13;;;;;;;6.03;5.50;;;18.30;99.90;;;;;;4985952;28;20227;-52
2022/09/06 04:57:39;;;;;;;5.60;5.10;;;18.30;99.90;;;;;;4988335;28;20218;-53
2022/09/06 05:00:13;;;;;;;6.50;5.40;;;18.20;99.90;;;;;;4963073;28;21755;-52
2022/09/06 05:02:40;;;;;;;9.40;6.43;;;18.30;99.90;;;;;;4970068;28;20456;-53
2022/09/06 05:05:07;;;;;;;6.80;6.17;;;18.30;99.90;;;;;;4989367;28;20252;-53
2022/09/06 05:07:34;;;;;;;7.87;7.07;;;18.30;99.90;;;;;;4969988;28;20658;-53
2022/09/06 05:10:01;;;;;;;7.50;6.77;;;18.30;99.90;;;;;;4982431;28;20209;-53
2022/09/06 05:12:28;;;;;;;8.63;7.47;;;18.30;99.90;;;;;;4984400;28;20621;-53
2022/09/06 05:14:55;;;;;;;11.57;7.47;;;18.30;99.90;;;;;;4984909;28;20212;-53
2022/09/06 05:17:21;;;;;;;9.60;7.70;;;18.10;99.90;;;;;;4986852;28;20633;-54
2022/09/06 05:19:48;;;;;;;9.30;8.33;;;18.10;99.90;;;;;;4983564;28;20340;-55
2022/09/06 05:22:15;;;;;;;9.37;8.33;;;18.10;99.90;;;;;;4989785;28;20303;-52
2022/09/06 05:24:42;;;;;;;9.40;8.13;;;18.10;99.90;;;;;;4987905;28;20240;-53
2022/09/06 05:27:11;;;;;;;10.60;9.07;;;18.10;99.90;;;;;;4986041;28;20256;-53
2022/09/06 05:29:38;;;;;;;9.30;8.33;;;18.20;99.90;;;;;;4976294;28;20212;-52
2022/09/06 05:32:05;;;;;;;8.97;8.10;;;18.20;99.90;;;;;;4987828;28;20201;-53
2022/09/06 05:34:32;;;;;;;9.23;8.27;;;18.30;99.90;;;;;;4986685;28;20216;-53
2022/09/06 05:36:59;;;;;;;9.30;8.30;;;18.30;99.90;;;;;;4991265;28;20307;-52
2022/09/06 05:39:26;;;;;;;8.93;8.03;;;18.30;99.90;;;;;;4993223;28;20260;-53
2022/09/06 05:41:52;;;;;;;10.10;9.00;;;18.40;99.90;;;;;;4991870;28;20255;-53
2022/09/06 05:44:19;;;;;;;10.17;8.60;;;18.30;99.90;;;;;;4983399;28;20241;-53
2022/09/06 05:46:46;;;;;;;9.77;8.70;;;18.40;99.90;;;;;;4982996;28;20835;-53
2022/09/06 05:49:13;;;;;;;9.00;8.10;;;18.40;99.90;;;;;;4970079;28;20545;-53
2022/09/06 05:51:40;;;;;;;8.57;7.77;;;18.50;99.90;;;;;;4979951;28;20241;-53
2022/09/06 05:54:10;;;;;;;8.18;7.38;;;18.50;99.90;;;;;;4620479;28;10000173;-52
2022/09/06 05:56:36;;;;;;;9.53;8.53;;;18.50;99.90;;;;;;4984368;28;20634;-53
2022/09/06 05:59:04;;;;;;;8.60;7.80;;;18.50;99.90;;;;;;4991131;28;20311;-53
2022/09/06 06:01:31;;;;;;;8.60;7.70;;;18.50;99.90;;;;;;4984478;28;20324;-53
2022/09/06 06:04:03;;;;;;;8.93;8.13;;;18.50;99.90;;;;;;4985954;28;20344;-53
2022/09/06 06:06:32;;;;;;;9.53;8.63;;;18.50;99.90;;;;;;4973237;28;20233;-53
2022/09/06 06:08:59;;;;;;;9.77;8.63;;;18.50;99.90;;;;;;5015160;28;20213;-53
2022/09/06 06:11:27;;;;;;;9.20;8.30;;;18.50;99.90;;;;;;4984730;28;20237;-53
2022/09/06 06:13:54;;;;;;;9.57;8.57;;;18.50;99.90;;;;;;4991779;28;20312;-53
2022/09/06 06:16:22;;;;;;;9.57;8.70;;;18.50;99.90;;;;;;4985011;28;20212;-53
2022/09/06 06:18:49;;;;;;;9.03;8.07;;;18.50;99.90;;;;;;4993304;28;20224;-53
2022/09/06 06:21:22;;;;;;;9.63;8.80;;;18.60;99.90;;;;;;4988323;28;20670;-53
2022/09/06 06:23:57;;;;;;;9.77;8.87;;;18.60;99.90;;;;;;4985126;28;20203;-54
2022/09/06 06:26:25;;;;;;;11.60;9.93;;;18.60;99.90;;;;;;4986491;28;20290;-54
2022/09/06 06:28:53;;;;;;;12.17;10.77;;;18.60;99.90;;;;;;4983058;28;20220;-55
2022/09/06 06:31:21;;;;;;;10.67;9.57;;;18.60;99.90;;;;;;4986705;28;20232;-55
2022/09/06 06:33:48;;;;;;;10.07;8.80;;;18.70;99.90;;;;;;4989241;28;20197;-54
2022/09/06 06:36:15;;;;;;;10.17;9.27;;;18.80;99.90;;;;;;4990325;28;20295;-53
2022/09/06 06:38:43;;;;;;;10.80;9.33;;;18.80;99.90;;;;;;4987644;28;20806;-54
2022/09/06 06:41:13;;;;;;;10.47;9.40;;;18.90;99.90;;;;;;4988096;28;20193;-55
2022/09/06 06:43:40;;;;;;;9.97;8.93;;;18.90;99.90;;;;;;4982001;28;20296;-54
2022/09/06 06:46:10;;;;;;;9.73;8.83;;;19.00;99.90;;;;;;4995623;28;20247;-54
2022/09/06 06:48:39;;;;;;;10.97;9.27;;;19.10;99.90;;;;;;4991994;28;20768;-54
2022/09/06 06:51:11;;;;;;;10.47;9.03;;;19.20;99.90;;;;;;4987601;28;20331;-54
2022/09/06 06:53:38;;;;;;;9.63;8.63;;;19.40;99.90;;;;;;4991113;28;20276;-54
2022/09/06 06:56:30;;;;;;;10.40;9.30;;;19.60;99.90;;;;;;4992427;28;20237;-54
2022/09/06 06:58:58;;;;;;;9.83;8.60;;;19.60;99.90;;;;;;4992829;28;20218;-54
2022/09/06 07:01:27;;;;;;;9.57;8.73;;;19.80;99.90;;;;;;4994144;28;20205;-53
2022/09/06 07:03:54;;;;;;;11.30;9.47;;;19.80;99.90;;;;;;4988233;28;20209;-54
2022/09/06 07:06:22;;;;;;;9.30;8.50;;;20.00;99.90;;;;;;4993202;28;20224;-54
2022/09/06 07:09:08;;;;;;;9.83;8.93;;;20.10;99.90;;;;;;4985370;28;20278;-54
2022/09/06 07:11:35;;;;;;;9.60;8.57;;;20.20;46.90;;;;;;4991834;28;20224;-54
2022/09/06 07:14:02;;;;;;;9.13;8.17;;;20.30;99.90;;;;;;4989853;28;20198;-54
2022/09/06 07:16:29;;;;;;;10.30;7.80;;;20.20;81.00;;;;;;4992414;28;20322;-54
2022/09/06 07:18:56;;;;;;;11.30;8.90;;;20.40;44.30;;;;;;4992173;28;20272;-53
2022/09/06 07:21:25;;;;;;;9.07;8.03;;;20.50;1.00;;;;;;4990975;28;20197;-54
2022/09/06 07:24:08;;;;;;;11.17;9.37;;;20.50;1.00;;;;;;4993363;28;20204;-54
2022/09/06 07:26:37;;;;;;;8.40;7.50;;;20.60;1.00;;;;;;4993021;28;20202;-53
2022/09/06 07:29:06;;;;;;;11.13;8.10;;;20.80;1.00;;;;;;4996138;28;20205;-53
2022/09/06 07:31:34;;;;;;;10.53;8.57;;;20.90;1.00;;;;;;4988585;28;20338;-53
2022/09/06 07:34:21;;;;;;;9.33;7.87;;;20.90;1.00;;;;;;4992171;28;20220;-54
2022/09/06 07:36:52;;;;;;;9.47;8.47;;;21.00;1.00;;;;;;4993375;28;20233;-53
2022/09/06 07:39:19;;;;;;;8.93;7.67;;;21.00;99.90;;;;;;4989262;28;20745;-53
2022/09/06 07:41:46;;;;;;;9.07;7.93;;;21.10;1.00;;;;;;4992738;28;20226;-53
2022/09/06 07:44:12;;;;;;;8.33;7.20;;;21.00;99.90;;;;;;4989713;28;20230;-53
2022/09/06 07:46:39;;;;;;;9.43;6.87;;;20.90;99.90;;;;;;4992509;28;20232;-53
2022/09/06 07:49:06;;;;;;;10.77;7.60;;;21.00;1.00;;;;;;4989396;28;20206;-53
2022/09/06 07:51:33;;;;;;;13.73;6.70;;;21.10;1.00;;;;;;4993598;28;20241;-53
2022/09/06 07:54:00;;;;;;;7.87;7.07;;;21.10;1.00;;;;;;4987048;28;20260;-53
2022/09/06 07:56:47;;;;;;;8.27;6.17;;;21.20;1.00;;;;;;4992609;28;20236;-53
2022/09/06 07:59:14;;;;;;;7.23;6.27;;;21.30;1.00;;;;;;4986880;28;20257;-54
2022/09/06 08:01:41;;;;;;;8.10;6.03;;;21.30;1.00;;;;;;4987799;28;20461;-54
2022/09/06 08:04:11;;;;;;;7.37;6.10;;;21.20;1.00;;;;;;4989946;28;20201;-54
2022/09/06 08:06:49;;;;;;;6.13;5.63;;;21.30;1.00;;;;;;4992303;28;20234;-53
2022/09/06 08:09:36;;;;;;;7.03;6.27;;;21.40;1.00;;;;;;4992880;28;20213;-54
2022/09/06 08:12:05;;;;;;;7.03;6.10;;;21.50;1.00;;;;;;4991305;28;20217;-54
2022/09/06 08:14:33;;;;;;;6.17;5.57;;;21.50;1.00;;;;;;4988992;28;20260;-54
2022/09/06 08:17:00;;;;;;;6.63;5.80;;;21.60;99.90;;;;;;4992511;28;20276;-54
2022/09/06 08:19:27;;;;;;;7.30;5.70;;;21.50;1.00;;;;;;4990948;28;20217;-54
2022/09/06 08:21:54;;;;;;;6.47;5.47;;;21.70;99.90;;;;;;5019464;28;20306;-54
2022/09/06 08:24:21;;;;;;;7.43;5.10;;;21.70;99.90;;;;;;4992164;28;20205;-54
2022/09/06 08:26:49;;;;;;;5.40;4.90;;;22.00;1.00;;;;;;4992288;28;20198;-56
2022/09/06 08:29:16;;;;;;;5.57;4.97;;;22.30;1.00;;;;;;4989188;28;20280;-54
2022/09/06 08:31:45;;;;;;;8.17;5.40;;;22.30;99.90;;;;;;4989999;28;20232;-54
2022/09/06 08:34:13;;;;;;;5.20;4.43;;;22.30;1.00;;;;;;4991038;28;20264;-54
2022/09/06 08:36:40;;;;;;;5.93;4.27;;;22.70;1.00;;;;;;4992601;28;20205;-53
2022/09/06 08:39:08;;;;;;;5.83;4.20;;;23.00;99.90;;;;;;4987212;28;20214;-54
2022/09/06 08:41:56;;;;;;;4.10;3.40;;;23.30;99.90;;;;;;4989906;28;20811;-53
2022/09/06 08:44:28;;;;;;;5.23;3.93;;;23.50;99.90;;;;;;4991602;28;20676;-54
2022/09/06 08:47:17;;;;;;;5.00;3.20;;;23.70;1.00;;;;;;4990288;28;20242;-55
2022/09/06 08:49:45;;;;;;;4.97;3.43;;;23.60;1.00;;;;;;4990072;28;20198;-54
2022/09/06 08:52:21;;;;;;;4.47;3.10;;;23.60;1.00;;;;;;4976021;28;20299;-54
2022/09/06 08:55:00;;;;;;;4.40;3.07;;;24.00;1.00;;;;;;4992863;28;20325;-53
2022/09/06 08:57:59;;;;;;;4.80;2.50;;;24.40;99.90;;;;;;4992997;28;20288;-54
2022/09/06 09:00:26;;;;;;;3.00;2.67;;;24.10;61.10;;;;;;4990804;28;21086;-54
2022/09/06 09:03:13;;;;;;;3.43;1.93;;;24.60;1.00;;;;;;4991068;28;20805;-54
2022/09/06 09:05:45;;;;;;;3.90;2.10;;;24.80;99.90;;;;;;4995380;28;20216;-54
2022/09/06 09:08:18;;;;;;;2.73;1.90;;;24.20;99.90;;;;;;4991273;28;20217;-54
2022/09/06 09:10:56;;;;;;;5.47;1.80;;;24.10;99.90;;;;;;4990333;28;20256;-54
2022/09/06 09:13:33;;;;;;;5.37;2.30;;;24.40;1.00;;;;;;4986858;28;20211;-54
2022/09/06 09:16:01;;;;;;;2.50;2.17;;;24.50;99.90;;;;;;4990524;28;20216;-54
2022/09/06 09:18:32;;;;;;;3.17;2.37;;;24.30;99.90;;;;;;4990867;28;20303;-55
2022/09/06 09:20:59;;;;;;;3.30;2.20;;;24.20;99.90;;;;;;4991461;28;20214;-55
2022/09/06 09:23:28;;;;;;;4.20;2.30;;;24.10;99.90;;;;;;4989099;28;20289;-54
2022/09/06 09:26:01;;;;;;;3.63;2.50;;;24.60;99.90;;;;;;4989455;28;20203;-55
2022/09/06 09:28:27;;;;;;;3.93;2.37;;;24.50;99.90;;;;;;4990339;28;20195;-55
2022/09/06 09:30:55;;;;;;;3.20;2.80;;;24.60;99.90;;;;;;4990494;28;20204;-54
2022/09/06 09:33:31;;;;;;;5.10;2.73;;;24.40;99.90;;;;;;4987661;28;20212;-55
2022/09/06 09:36:01;;;;;;;7.23;3.37;;;24.40;99.90;;;;;;4982836;28;20278;-54
2022/09/06 09:38:31;;;;;;;2.90;2.60;;;24.50;99.90;;;;;;4989875;28;20231;-54
2022/09/06 09:41:04;;;;;;;3.23;2.73;;;24.60;99.90;;;;;;4988425;28;20226;-56
2022/09/06 09:43:34;;;;;;;4.20;3.00;;;24.50;99.90;;;;;;4988963;28;20202;-55
2022/09/06 09:46:22;;;;;;;3.23;2.70;;;24.20;99.90;;;;;;4992613;28;20516;-54
2022/09/06 09:49:09;;;;;;;6.37;2.87;;;24.20;99.90;;;;;;4989022;28;20595;-54
2022/09/06 09:52:04;;;;;;;2.70;2.50;;;24.30;1.00;;;;;;4979022;28;20323;-54
2022/09/06 09:54:35;;;;;;;3.00;2.70;;;24.20;99.90;;;;;;4983492;28;20229;-55
2022/09/06 09:57:06;;;;;;;2.60;2.40;;;24.50;99.90;;;;;;4981709;28;20216;-54
2022/09/06 09:59:44;;;;;;;3.10;2.77;;;24.40;99.90;;;;;;4986804;28;20312;-55
2022/09/06 10:02:26;;;;;;;5.13;2.60;;;24.30;99.90;;;;;;4985030;28;20201;-54
2022/09/06 10:05:03;;;;;;;3.33;2.40;;;24.40;99.90;;;;;;4988678;28;20237;-54
2022/09/06 10:07:40;;;;;;;5.00;3.07;;;24.60;99.90;;;;;;4968266;28;20248;-55
2022/09/06 10:10:13;;;;;;;4.10;2.90;;;24.60;1.00;;;;;;4975588;28;20237;-54
2022/09/06 10:12:41;;;;;;;3.17;2.83;;;24.60;98.00;;;;;;4981606;28;20201;-55
2022/09/06 10:15:11;;;;;;;3.73;3.00;;;24.50;99.90;;;;;;4982554;28;20230;-55
2022/09/06 10:17:49;;;;;;;4.57;3.30;;;24.40;99.90;;;;;;4984948;28;20456;-56
2022/09/06 10:20:16;;;;;;;3.13;2.63;;;24.60;99.90;;;;;;4984830;28;20221;-55
2022/09/06 10:23:26;;;;;;;3.55;2.42;;;24.60;99.90;;;;;;4990210;28;20942;-56
2022/09/06 10:26:21;;;;;;;4.13;2.90;;;24.80;93.20;;;;;;4982297;28;20213;-53
2022/09/06 10:28:52;;;;;;;3.33;2.93;;;25.10;99.90;;;;;;4991003;28;20249;-54
2022/09/06 10:31:37;;;;;;;4.50;3.43;;;25.00;99.90;;;;;;4983644;28;20308;-53
2022/09/06 10:34:28;;;;;;;5.37;3.17;;;25.10;99.90;;;;;;4987043;28;20236;-54
2022/09/06 10:37:22;;;;;;;3.87;2.90;;;25.10;1.00;;;;;;4988756;28;20194;-54
2022/09/06 10:40:06;;;;;;;4.13;3.33;;;25.10;1.00;;;;;;4987952;28;20220;-54
2022/09/06 10:42:45;;;;;;;4.30;3.23;;;25.20;1.00;;;;;;4991199;28;20205;-54
2022/09/06 10:45:15;;;;;;;4.70;2.70;;;25.00;99.00;;;;;;4992818;28;20229;-54
2022/09/06 10:47:53;;;;;;;3.50;3.20;;;25.20;99.90;;;;;;4990475;28;20579;-54
2022/09/06 10:50:24;;;;;;;4.07;3.30;;;25.40;1.00;;;;;;4991925;28;20230;-54
2022/09/06 10:52:52;;;;;;;5.93;4.63;;;25.30;1.00;;;;;;4992131;28;20300;-54
2022/09/06 10:55:19;;;;;;;10.83;3.90;;;25.00;1.00;;;;;;4994901;28;20337;-55
2022/09/06 10:57:53;;;;;;;4.53;2.87;;;24.80;1.00;;;;;;4992452;28;20216;-53
2022/09/06 11:00:45;;;;;;;7.40;3.30;;;24.90;45.10;;;;;;4989684;28;20361;-54
2022/09/06 11:03:41;;;;;;;4.27;3.30;;;25.20;67.70;;;;;;4992225;28;20840;-54
2022/09/06 11:06:33;;;;;;;7.03;3.30;;;25.40;1.00;;;;;;4994233;28;20257;-54
2022/09/06 11:09:18;;;;;;;5.40;3.53;;;25.40;1.00;;;;;;4989114;28;20216;-54
2022/09/06 11:12:22;;;;;;;6.27;4.20;;;25.60;1.00;;;;;;4991658;28;20744;-54
2022/09/06 11:14:50;;;;;;;4.90;4.13;;;25.60;1.00;;;;;;4989789;28;20193;-54
2022/09/06 11:17:29;;;;;;;6.30;4.07;;;25.60;1.00;;;;;;4986529;28;20320;-54
2022/09/06 11:20:33;;;;;;;5.23;4.03;;;25.60;1.00;;;;;;4991386;28;20861;-54
2022/09/06 11:23:16;;;;;;;5.45;3.47;;;25.90;1.00;;;;;;4983088;28;20214;-53
2022/09/06 11:26:12;;;;;;;5.10;3.53;;;26.20;1.00;;;;;;4989840;28;20228;-53
2022/09/06 11:28:46;;;;;;;4.88;3.58;;;26.20;1.00;;;;;;4992469;28;20202;-53
2022/09/06 11:31:31;;;;;;;4.40;3.00;;;26.20;1.00;;;;;;4989668;28;20986;-54
2022/09/06 11:34:30;;;;;;;4.57;3.80;;;26.20;1.00;;;;;;4990062;28;20205;-54
2022/09/06 11:37:00;;;;;;;8.55;3.15;;;26.40;1.00;;;;;;4977327;28;20303;-56
2022/09/06 11:39:38;;;;;;;5.60;3.53;;;26.20;1.00;;;;;;4985103;28;20197;-53
2022/09/06 11:42:44;;;;;;;5.35;3.85;;;26.20;1.00;;;;;;4986665;28;20271;-53
2022/09/06 11:45:10;;;;;;;3.38;3.08;;;26.50;99.90;;;;;;4987882;28;20642;-53
2022/09/06 11:47:40;;;;;;;6.18;3.38;;;26.50;1.00;;;;;;4982946;28;20297;-54
2022/09/06 11:50:19;;;;;;;4.03;2.90;;;26.90;99.90;;;;;;4985819;28;20298;-55
2022/09/06 11:53:16;;;;;;;4.82;3.35;;;27.00;1.00;;;;;;4988586;28;20228;-54
2022/09/06 11:55:44;;;;;;;4.90;3.30;;;27.20;99.90;;;;;;4981413;28;20234;-55
2022/09/06 11:58:17;;;;;;;5.60;3.00;;;27.40;99.90;;;;;;4991075;28;20255;-55
2022/09/06 12:00:46;;;;;;;4.32;3.17;;;27.30;99.90;;;;;;4989946;28;20299;-53
2022/09/06 12:03:41;;;;;;;3.42;3.10;;;27.70;99.90;;;;;;4986631;28;20206;-55
2022/09/06 12:06:34;;;;;;;4.45;3.30;;;27.70;99.90;;;;;;4963528;28;20220;-53
2022/09/06 12:09:21;;;;;;;5.35;3.08;;;28.20;99.90;;;;;;4987194;28;20684;-55
2022/09/06 12:11:50;;;;;;;6.03;3.40;;;28.00;99.90;;;;;;4985932;28;20283;-53
2022/09/06 12:14:41;;;;;;;5.20;2.97;;;28.00;99.90;;;;;;4985306;28;20202;-55
2022/09/06 12:17:08;;;;;;;3.63;3.03;;;28.30;85.10;;;;;;4990310;28;20198;-54
2022/09/06 12:19:53;;;;;;;5.53;2.72;;;28.90;55.30;;;;;;4985158;28;20264;-54
2022/09/06 12:22:29;;;;;;;3.60;3.25;;;28.90;34.70;;;;;;4993762;28;20201;-55
2022/09/06 12:25:00;;;;;;;4.97;2.65;;;28.80;99.90;;;;;;4985099;28;20303;-53
2022/09/06 12:27:43;;;;;;;5.10;3.03;;;29.00;1.00;;;;;;4995951;28;20602;-54
2022/09/06 12:30:12;;;;;;;6.10;3.28;;;28.90;1.00;;;;;;4990905;28;20206;-55
2022/09/06 12:32:44;;;;;;;4.18;3.33;;;28.90;1.00;;;;;;4975012;28;20420;-54
2022/09/06 12:35:25;;;;;;;4.47;3.20;;;28.90;1.00;;;;;;4993135;28;20241;-54
2022/09/06 12:38:14;;;;;;;4.17;3.33;;;29.00;1.00;;;;;;4989464;28;20209;-55
2022/09/06 12:40:47;;;;;;;3.47;2.40;;;29.00;1.00;;;;;;4981150;28;20693;-54
2022/09/06 12:43:16;;;;;;;3.73;2.23;;;28.90;1.00;;;;;;4986868;28;20540;-54
2022/09/06 12:45:49;;;;;;;3.30;2.33;;;28.90;1.00;;;;;;4987326;28;20205;-56
2022/09/06 12:48:28;;;;;;;5.32;4.18;;;28.80;1.00;;;;;;4990358;28;20253;-55
2022/09/06 12:51:18;;;;;;;4.53;2.93;;;29.20;1.00;;;;;;4980783;28;20797;-54
2022/09/06 12:53:54;;;;;;;4.75;2.60;;;29.40;1.00;;;;;;4987865;28;20233;-59
2022/09/06 12:56:23;;;;;;;5.40;2.22;;;29.20;1.00;;;;;;4986189;28;20741;-55
2022/09/06 12:58:50;;;;;;;3.75;2.00;;;29.20;1.00;;;;;;4985462;28;20341;-55
2022/09/06 13:01:31;;;;;;;5.95;2.40;;;29.40;1.00;;;;;;4979048;28;20623;-57
2022/09/06 13:04:12;;;;;;;4.28;1.95;;;29.70;1.00;;;;;;4983852;28;20205;-56
2022/09/06 13:06:42;;;;;;;4.00;2.92;;;29.90;1.00;;;;;;4993506;28;20217;-56
2022/09/06 13:09:14;;;;;;;2.60;2.30;;;29.70;1.00;;;;;;4979804;28;20209;-55
2022/09/06 13:11:47;;;;;;;3.70;2.20;;;29.90;1.00;;;;;;4977321;28;20225;-54
2022/09/06 13:14:25;;;;;;;2.70;2.30;;;30.00;1.00;;;;;;4984065;28;20205;-55
2022/09/06 13:16:56;;;;;;;4.93;2.92;;;29.60;1.00;;;;;;4988239;28;20212;-55
2022/09/06 13:19:29;;;;;;;3.53;2.42;;;29.50;1.00;;;;;;4986361;28;20217;-56